Time;durP1;ratioP1;P1;durP2;ratioP2;P2;SDS_P1;SDS_P2;PMS_P1;PMS_P2;Temp;Humidity;BMP_temperature;BMP_pressure;BME280_temperature;BME280_humidity;BME280_pressure;Samples;Min_cycle;Max_cycle;Signal;HPM_P1;HPM_P2
2021/11/28 05:02:25;;;;;;;7.60;4.68;;;;;;;8.73;92.70;93520.09;5238490;23;20153;-77
2021/11/28 05:04:51;;;;;;;4.93;4.43;;;;;;;8.64;93.18;93513.53;4989580;28;20530;-77
2021/11/28 05:07:16;;;;;;;4.47;3.88;;;;;;;8.42;93.91;93528.34;4990873;28;20034;-77
2021/11/28 05:09:42;;;;;;;4.93;4.40;;;;;;;8.42;95.35;93530.13;4989102;28;20065;-78
2021/11/28 05:12:08;;;;;;;7.18;4.28;;;;;;;8.63;93.21;93526.66;4989349;28;20117;-77
2021/11/28 05:14:33;;;;;;;5.13;4.60;;;;;;;8.50;93.80;93522.25;4989512;28;20518;-77
2021/11/28 05:16:59;;;;;;;6.00;4.22;;;;;;;8.13;95.34;93520.06;4988510;28;20034;-78
2021/11/28 05:19:24;;;;;;;5.28;4.78;;;;;;;7.93;95.86;93510.44;4989760;28;20041;-78
2021/11/28 05:21:50;;;;;;;4.88;3.85;;;;;;;7.85;96.52;93518.34;4987963;28;20026;-77
2021/11/28 05:24:15;;;;;;;6.75;3.70;;;;;;;8.22;95.66;93508.63;4973201;28;20034;-77
2021/11/28 05:26:40;;;;;;;3.92;3.30;;;;;;;8.40;93.27;93511.50;4988782;28;20415;-78
2021/11/28 05:29:06;;;;;;;4.20;3.03;;;;;;;8.37;93.11;93509.28;4989422;28;20495;-78
2021/11/28 05:31:31;;;;;;;3.08;2.58;;;;;;;8.45;92.30;93520.22;4988833;28;20130;-77
2021/11/28 05:33:57;;;;;;;2.88;2.67;;;;;;;8.29;92.32;93515.41;4989965;28;20035;-77
2021/11/28 05:36:23;;;;;;;5.25;3.22;;;;;;;7.73;94.73;93519.06;4990515;28;20066;-77
2021/11/28 05:38:49;;;;;;;6.53;3.58;;;;;;;7.57;96.31;93516.78;4987775;28;20026;-77
2021/11/28 05:41:14;;;;;;;6.65;4.43;;;;;;;7.68;96.01;93537.66;4989281;28;20061;-78
2021/11/28 05:43:43;;;;;;;4.70;2.85;;;;;;;8.04;94.85;93531.53;4987302;28;20026;-77
2021/11/28 05:46:09;;;;;;;6.28;4.20;;;;;;;8.14;93.95;93534.56;4988906;28;20121;-76
2021/11/28 05:48:35;;;;;;;9.07;5.45;;;;;;;8.06;93.63;93521.84;4987563;28;20027;-77
2021/11/28 05:51:00;;;;;;;5.65;3.10;;;;;;;8.36;93.98;93512.84;4989942;28;20073;-77
2021/11/28 05:53:26;;;;;;;2.25;2.05;;;;;;;8.66;91.19;93511.56;4988319;28;20384;-77
2021/11/28 05:55:52;;;;;;;2.63;1.90;;;;;;;8.71;90.70;93498.06;4989117;28;20101;-77
2021/11/28 05:58:17;;;;;;;2.55;2.33;;;;;;;9.08;89.51;93494.16;4972861;28;20489;-77
2021/11/28 06:00:43;;;;;;;4.05;2.88;;;;;;;9.26;88.33;93487.41;4986944;28;20491;-77
2021/11/28 06:03:09;;;;;;;2.30;2.10;;;;;;;9.40;87.79;93504.50;4988878;28;20464;-77
2021/11/28 06:05:34;;;;;;;3.28;2.83;;;;;;;8.91;88.14;93530.69;4986821;28;20512;-77
2021/11/28 06:12:33;;;;;;;7.03;5.90;;;;;;;8.11;92.30;93564.09;4977690;28;20545;-77
2021/11/28 06:15:00;;;;;;;7.95;7.15;;;;;;;7.83;93.39;93568.50;4952846;28;20507;-77
2021/11/28 06:17:25;;;;;;;9.27;7.50;;;;;;;7.73;94.45;93568.03;4951568;28;20035;-77
2021/11/28 06:19:51;;;;;;;11.38;8.35;;;;;;;7.96;93.42;93571.94;4969473;28;20150;-77
2021/11/28 06:22:16;;;;;;;10.73;7.80;;;;;;;8.12;92.66;93582.94;4967614;28;20038;-77
2021/11/28 06:24:42;;;;;;;9.55;8.07;;;;;;;8.19;91.86;93588.91;4970163;28;20031;-77
2021/11/28 06:27:08;;;;;;;10.20;8.98;;;;;;;7.86;93.06;93574.06;4967523;28;20467;-77
2021/11/28 06:29:35;;;;;;;12.07;8.45;;;;;;;8.40;91.05;93579.34;4969075;28;20109;-78
2021/11/28 06:32:01;;;;;;;10.40;8.13;;;;;;;8.59;89.82;93564.94;4951928;28;20027;-77
2021/11/28 06:34:26;;;;;;;9.18;7.95;;;;;;;9.25;87.18;93557.34;4977736;28;20041;-77
2021/11/28 06:36:52;;;;;;;14.55;9.40;;;;;;;9.69;83.93;93559.34;4987849;28;20514;-77
2021/11/28 06:39:17;;;;;;;10.75;7.82;;;;;;;9.86;83.81;93558.72;4987253;28;20030;-77
2021/11/28 06:41:43;;;;;;;13.35;7.95;;;;;;;9.95;82.40;93567.88;4989029;28;20104;-77
2021/11/28 06:44:08;;;;;;;8.48;7.50;;;;;;;10.64;80.22;93561.34;4986502;28;20026;-77
2021/11/28 06:46:35;;;;;;;7.93;6.40;;;;;;;10.31;81.41;93561.47;4970104;28;20551;-77
2021/11/28 06:49:01;;;;;;;8.07;7.05;;;;;;;11.27;77.50;93572.59;4968986;28;20027;-77
2021/11/28 06:51:26;;;;;;;7.40;6.68;;;;;;;11.29;76.68;93594.72;4984717;28;20030;-78
2021/11/28 06:53:51;;;;;;;8.10;7.03;;;;;;;12.23;73.08;93581.66;4968770;28;20026;-77
2021/11/28 06:56:17;;;;;;;6.22;5.10;;;;;;;11.23;73.44;93586.97;4969208;28;20023;-77
2021/11/28 06:58:42;;;;;;;10.50;9.43;;;;;;;10.95;76.79;93582.91;4968498;28;20033;-77
2021/11/28 07:01:08;;;;;;;7.63;6.55;;;;;;;10.41;77.88;93570.41;4951346;28;20046;-77
2021/11/28 07:03:33;;;;;;;7.55;6.63;;;;;;;10.80;77.72;93566.88;4977488;28;20483;-77
2021/11/28 07:06:00;;;;;;;4.72;4.22;;;;;;;11.48;75.01;93572.25;4974400;28;20037;-77
2021/11/28 07:08:25;;;;;;;10.27;6.07;;;;;;;11.41;76.17;93555.94;4977820;28;20038;-77
2021/11/28 07:10:53;;;;;;;6.18;5.57;;;;;;;12.41;72.03;93547.09;4976871;28;20022;-77
2021/11/28 07:13:18;;;;;;;6.60;5.60;;;;;;;12.43;72.66;93537.28;4981061;28;20023;-77
2021/11/28 07:15:44;;;;;;;5.15;4.65;;;;;;;14.86;61.98;93562.19;4984104;28;20046;-77
2021/11/28 07:18:09;;;;;;;2.55;2.35;;;;;;;17.37;51.32;93554.75;4987091;28;20018;-78
2021/11/28 07:20:35;;;;;;;1.45;1.00;;;;;;;18.65;46.99;93575.75;4989438;28;20038;-77
2021/11/28 07:23:02;;;;;;;1.77;0.93;;;;;;;16.85;50.95;93566.75;4970526;28;20122;-77
2021/11/28 07:25:28;;;;;;;9.55;4.28;;;;;;;16.58;52.81;93577.13;4988567;28;20027;-77
2021/11/28 07:27:55;;;;;;;7.90;5.82;;;;;;;15.82;54.63;93575.16;4986669;28;20018;-77
2021/11/28 08:28:32;;;;;;;;;;;;;;;;;;;;;
2021/11/28 08:32:15;;;;;;;;;;;;;;;;;;;;;
2021/11/28 08:35:20;;;;;;;;;;;;;;;;;;;;;
2021/11/28 08:42:13;;;;;;;;;;;;;;;;;;;;;
2021/11/28 08:45:32;;;;;;;;;;;;;;;;;;;;;
2021/11/28 15:17:13;;;;;;;4.03;3.25;;;;;;;11.91;75.17;93305.16;4987267;28;20195;-71
2021/11/28 15:19:39;;;;;;;3.33;3.00;;;;;;;11.94;74.97;93304.72;4986379;28;20133;-71
2021/11/28 15:22:04;;;;;;;4.25;3.33;;;;;;;11.90;75.02;93313.94;4987967;28;20675;-71
2021/11/28 15:24:29;;;;;;;4.30;3.83;;;;;;;11.92;75.22;93312.69;5011698;28;20024;-71
2021/11/28 15:26:56;;;;;;;5.47;3.78;;;;;;;11.89;75.49;93294.97;5027494;28;20033;-71
2021/11/28 15:29:22;;;;;;;5.97;4.07;;;;;;;11.85;76.08;93288.63;5005119;28;20037;-71
2021/11/28 15:31:48;;;;;;;5.28;3.72;;;;;;;11.90;75.74;93293.19;4988607;28;20030;-71
2021/11/28 15:34:14;;;;;;;4.70;3.88;;;;;;;11.86;75.91;93294.63;4988910;28;20025;-71
2021/11/28 15:36:39;;;;;;;5.43;4.10;;;;;;;11.87;75.81;93307.38;5006608;28;20026;-71
2021/11/28 15:39:06;;;;;;;5.65;3.88;;;;;;;11.79;76.20;93302.50;4988005;28;20026;-71
2021/11/28 15:41:31;;;;;;;6.20;4.22;;;;;;;11.81;76.37;93300.50;4989190;28;20029;-71
2021/11/28 15:43:57;;;;;;;4.70;4.20;;;;;;;11.75;76.15;93301.34;5010776;28;20030;-70
2021/11/28 15:46:23;;;;;;;5.18;4.07;;;;;;;11.72;76.70;93309.56;5008990;28;20150;-71
2021/11/28 15:48:48;;;;;;;5.78;4.15;;;;;;;11.77;76.81;93303.72;4993171;28;20030;-71
2021/11/28 15:51:14;;;;;;;5.85;4.35;;;;;;;11.81;76.92;93297.09;4976515;28;20026;-71
2021/11/28 15:53:40;;;;;;;7.68;5.03;;;;;;;11.73;77.04;93287.00;5001453;28;20033;-70
2021/11/28 15:56:06;;;;;;;6.95;4.85;;;;;;;11.76;76.88;93279.59;5012762;28;20520;-70
2021/11/28 15:58:31;;;;;;;7.88;4.18;;;;;;;11.74;76.67;93265.25;5012428;28;20057;-73
2021/11/28 16:00:58;;;;;;;6.20;4.60;;;;;;;11.78;76.60;93269.00;5012743;28;20037;-73
2021/11/28 16:03:23;;;;;;;6.97;5.28;;;;;;;11.76;76.85;93279.59;4994919;28;20482;-72
2021/11/28 16:05:49;;;;;;;5.70;5.05;;;;;;;11.69;77.10;93267.69;4993471;28;20030;-73
2021/11/28 16:08:16;;;;;;;9.10;5.38;;;;;;;11.75;76.59;93246.09;4975765;28;20045;-71
2021/11/28 16:10:42;;;;;;;7.57;5.78;;;;;;;11.70;76.58;93259.72;4992013;28;20156;-72
2021/11/28 16:13:08;;;;;;;7.55;6.70;;;;;;;11.67;76.54;93241.97;4987203;28;20026;-72
2021/11/28 16:15:33;;;;;;;6.68;5.30;;;;;;;11.71;76.52;93256.13;5008870;28;20033;-72
2021/11/28 16:17:58;;;;;;;5.38;4.88;;;;;;;11.65;76.66;93265.53;4992930;28;20477;-71
2021/11/28 16:20:24;;;;;;;8.68;6.40;;;;;;;11.68;76.31;93266.91;5004072;28;20553;-72
2021/11/28 16:22:50;;;;;;;6.75;5.72;;;;;;;11.63;76.72;93280.50;5008720;28;20026;-73
2021/11/28 16:25:15;;;;;;;9.13;5.47;;;;;;;11.66;76.46;93266.31;4975276;28;20112;-73
2021/11/28 16:27:42;;;;;;;8.80;6.30;;;;;;;11.74;76.12;93241.91;4986870;28;20038;-72
2021/11/28 16:30:10;;;;;;;10.25;6.13;;;;;;;11.64;76.23;93235.44;5009454;28;20030;-72
2021/11/28 16:32:35;;;;;;;11.98;5.95;;;;;;;11.60;76.09;93223.91;4994127;28;20057;-73
2021/11/28 16:35:01;;;;;;;8.55;6.75;;;;;;;11.64;75.73;93208.72;4993719;28;20041;-72
2021/11/28 16:37:26;;;;;;;9.48;6.32;;;;;;;11.64;76.02;93229.44;5009616;28;20034;-72
2021/11/28 16:39:52;;;;;;;7.28;6.53;;;;;;;11.72;75.16;93213.59;5001818;28;20747;-73
2021/11/28 16:42:17;;;;;;;7.47;6.60;;;;;;;11.71;74.72;93214.63;4975390;28;20507;-73
2021/11/28 16:44:43;;;;;;;7.05;6.20;;;;;;;11.70;74.75;93209.63;5010122;28;20025;-73
2021/11/28 16:47:09;;;;;;;7.88;6.15;;;;;;;11.80;73.90;93222.88;4990976;28;20562;-73
2021/11/28 16:49:34;;;;;;;8.85;6.10;;;;;;;11.85;72.97;93231.56;5009419;28;20513;-72
2021/11/28 16:52:00;;;;;;;6.25;5.43;;;;;;;11.75;72.82;93220.94;5008941;28;20014;-72
2021/11/28 16:54:25;;;;;;;6.07;5.57;;;;;;;11.98;71.95;93226.19;4990596;28;20053;-75
2021/11/28 16:56:51;;;;;;;10.65;6.00;;;;;;;12.02;71.45;93229.94;5017178;28;20108;-72
2021/11/28 16:59:17;;;;;;;8.23;5.78;;;;;;;11.95;72.02;93234.44;5029306;28;20499;-72
2021/11/28 17:01:44;;;;;;;6.95;5.55;;;;;;;12.01;71.55;93240.53;5011269;28;20102;-69
2021/11/28 17:04:10;;;;;;;8.52;6.43;;;;;;;12.01;71.33;93220.56;5010491;28;20080;-72
2021/11/28 17:06:36;;;;;;;8.82;7.57;;;;;;;11.96;72.34;93220.44;4992334;28;20387;-73
2021/11/28 17:09:03;;;;;;;7.78;6.72;;;;;;;11.94;72.54;93199.13;5008723;28;20164;-72
2021/11/28 17:11:28;;;;;;;7.00;6.30;;;;;;;11.88;72.99;93218.16;5009645;28;20026;-71
2021/11/28 17:13:54;;;;;;;16.65;7.05;;;;;;;11.94;72.33;93191.34;5008831;28;20471;-72
2021/11/28 17:16:19;;;;;;;8.50;6.38;;;;;;;12.01;71.53;93167.88;5009072;28;20558;-71
2021/11/28 17:18:45;;;;;;;7.47;6.35;;;;;;;12.00;71.44;93161.94;5009499;28;20014;-69
2021/11/28 17:21:10;;;;;;;10.50;7.07;;;;;;;11.93;72.00;93176.78;4991317;28;20060;-70
2021/11/28 17:23:36;;;;;;;9.77;6.82;;;;;;;11.92;72.13;93170.00;4991975;28;20049;-71
2021/11/28 17:26:02;;;;;;;7.80;7.00;;;;;;;11.88;72.38;93168.09;5008438;28;20021;-71
2021/11/28 17:28:28;;;;;;;7.85;7.03;;;;;;;11.86;72.36;93164.94;4991980;28;20033;-70
2021/11/28 17:30:58;;;;;;;9.10;7.90;;;;;;;11.89;71.70;93159.28;5008309;28;20391;-73
2021/11/28 17:33:27;;;;;;;11.43;7.75;;;;;;;11.88;72.08;93179.25;5008958;28;20465;-72
2021/11/28 17:35:53;;;;;;;10.18;6.95;;;;;;;11.88;71.92;93176.66;4991425;28;20057;-71
2021/11/28 17:38:19;;;;;;;10.35;7.25;;;;;;;11.87;72.18;93161.34;4974977;28;20030;-74
2021/11/28 17:40:45;;;;;;;13.23;7.95;;;;;;;11.75;73.10;93158.69;4991683;28;20029;-72
2021/11/28 17:43:11;;;;;;;9.30;8.40;;;;;;;11.72;73.89;93164.31;4990388;28;20018;-70
2021/11/28 17:45:37;;;;;;;16.00;8.75;;;;;;;11.64;74.08;93156.84;4991867;28;20107;-70
2021/11/28 17:48:03;;;;;;;9.15;8.25;;;;;;;11.61;74.22;93158.09;5008423;28;20483;-70
2021/11/28 17:50:29;;;;;;;12.82;8.10;;;;;;;11.66;73.62;93149.63;5008943;28;20087;-71
2021/11/28 17:52:55;;;;;;;11.55;7.28;;;;;;;11.74;72.86;93133.00;4990731;28;20415;-70
2021/11/28 17:55:21;;;;;;;10.13;7.35;;;;;;;11.83;71.69;93116.09;4991048;28;20038;-72
2021/11/28 17:57:47;;;;;;;9.02;6.20;;;;;;;11.89;71.10;93115.19;4991409;28;20614;-72
2021/11/28 18:00:14;;;;;;;9.68;5.85;;;;;;;11.89;70.44;93082.28;5007737;28;20108;-71
2021/11/28 18:02:40;;;;;;;9.02;5.95;;;;;;;11.90;70.14;93081.25;4991526;28;20513;-71
2021/11/28 18:05:07;;;;;;;8.18;5.50;;;;;;;11.96;69.69;93080.38;4990712;28;20022;-71
2021/11/28 18:07:32;;;;;;;7.82;6.15;;;;;;;11.93;69.41;93061.84;4974793;28;20029;-73
2021/11/28 18:09:58;;;;;;;6.43;5.00;;;;;;;12.06;68.13;93090.97;4990407;28;20022;-72
2021/11/28 18:12:24;;;;;;;6.20;4.68;;;;;;;12.10;67.91;93105.06;4990820;28;20061;-72
2021/11/28 18:14:50;;;;;;;5.60;4.93;;;;;;;12.33;66.36;93098.31;4990893;28;20026;-73
2021/11/28 18:17:17;;;;;;;5.53;4.78;;;;;;;12.37;65.89;93118.38;4990203;28;20681;-71
2021/11/28 18:19:42;;;;;;;4.97;4.18;;;;;;;12.29;66.09;93123.91;4990584;28;20120;-70
2021/11/28 18:22:08;;;;;;;4.40;3.90;;;;;;;12.36;65.71;93126.41;4990011;28;20156;-69
2021/11/28 18:24:34;;;;;;;9.35;5.13;;;;;;;12.44;64.86;93126.84;5008640;28;20025;-69
2021/11/28 18:26:59;;;;;;;4.97;4.20;;;;;;;12.48;64.49;93138.34;4973816;28;20029;-70
2021/11/28 18:29:25;;;;;;;4.28;3.72;;;;;;;12.45;64.68;93151.78;4990388;28;20018;-69
2021/11/28 18:31:50;;;;;;;4.82;3.22;;;;;;;12.48;64.21;93158.34;4990527;28;20037;-69
2021/11/28 18:34:15;;;;;;;4.80;3.58;;;;;;;12.59;63.75;93160.91;4990141;28;20034;-71
2021/11/28 18:36:41;;;;;;;3.88;3.58;;;;;;;12.57;64.13;93159.56;5008391;28;20030;-72
2021/11/28 18:39:07;;;;;;;3.70;3.40;;;;;;;12.53;65.35;93150.63;4970004;28;20446;-71
2021/11/28 18:41:32;;;;;;;4.30;3.22;;;;;;;12.51;65.18;93139.69;4971219;28;20023;-72
2021/11/28 18:43:59;;;;;;;3.38;3.08;;;;;;;12.43;66.27;93135.63;4970486;28;20038;-72
2021/11/28 18:46:25;;;;;;;3.70;2.78;;;;;;;12.26;68.22;93131.38;4970888;28;20499;-71
2021/11/28 18:48:51;;;;;;;3.47;3.00;;;;;;;12.13;69.75;93125.38;4977985;28;20116;-71
2021/11/28 18:51:18;;;;;;;3.78;2.65;;;;;;;12.05;70.16;93115.31;4973459;28;20185;-72
2021/11/28 18:53:45;;;;;;;3.25;2.83;;;;;;;11.99;71.20;93116.22;4990007;28;20088;-72
2021/11/28 18:56:11;;;;;;;4.75;2.65;;;;;;;11.95;71.42;93109.09;4989571;28;20422;-72
2021/11/28 18:58:37;;;;;;;3.85;2.50;;;;;;;11.99;71.27;93097.28;5008253;28;20101;-72
2021/11/28 19:01:03;;;;;;;3.40;2.85;;;;;;;11.80;73.44;93112.16;4989315;28;20030;-72
2021/11/28 19:03:29;;;;;;;3.33;2.92;;;;;;;11.86;72.98;93092.31;4966051;28;20121;-72
2021/11/28 19:05:54;;;;;;;3.40;2.80;;;;;;;11.76;74.19;93090.25;4960863;28;20181;-72
2021/11/28 19:08:20;;;;;;;3.30;2.40;;;;;;;11.67;75.02;93083.00;4973294;28;20030;-71
2021/11/28 19:10:45;;;;;;;2.63;2.17;;;;;;;11.55;75.64;93104.53;4970213;28;20042;-72
2021/11/28 19:13:11;;;;;;;3.35;2.95;;;;;;;11.58;75.75;93100.69;4969807;28;20023;-72
2021/11/28 19:15:37;;;;;;;3.92;2.40;;;;;;;11.81;73.46;93095.59;4970900;28;20062;-72
2021/11/28 19:18:03;;;;;;;2.53;2.33;;;;;;;11.59;74.63;93087.50;4957150;28;20130;-72
2021/11/28 19:20:29;;;;;;;2.90;2.15;;;;;;;11.42;76.23;93083.19;4982505;28;20029;-72
2021/11/28 19:22:55;;;;;;;2.85;1.95;;;;;;;11.50;75.08;93083.66;4993671;28;20113;-72
2021/11/28 19:25:21;;;;;;;2.20;2.00;;;;;;;11.54;74.77;93074.41;4994056;28;20129;-72
2021/11/28 19:27:47;;;;;;;2.22;2.03;;;;;;;11.62;73.45;93062.94;4994020;28;20510;-72
2021/11/28 19:30:14;;;;;;;2.53;2.10;;;;;;;11.52;73.64;93060.09;4993609;28;20086;-72
2021/11/28 19:32:39;;;;;;;2.22;1.88;;;;;;;11.43;73.96;93051.84;4994081;28;20027;-72
2021/11/28 19:35:05;;;;;;;2.90;1.83;;;;;;;11.28;75.29;93054.06;4993480;28;20029;-72
2021/11/28 19:37:31;;;;;;;4.07;2.28;;;;;;;11.26;75.27;93057.91;4993992;28;20133;-72
2021/11/28 19:39:56;;;;;;;3.90;2.17;;;;;;;11.37;75.04;93075.28;4992825;28;20033;-72
2021/11/28 19:42:22;;;;;;;2.45;2.25;;;;;;;11.37;74.56;93070.88;4993845;28;20034;-72
2021/11/28 19:44:47;;;;;;;3.40;2.35;;;;;;;11.37;74.71;93062.31;5010972;28;20105;-71
2021/11/28 19:47:15;;;;;;;3.72;2.38;;;;;;;11.47;73.61;93078.91;4993193;28;20034;-72
2021/11/28 19:49:45;;;;;;;3.45;2.40;;;;;;;11.48;73.64;93066.75;4993957;28;20076;-71
2021/11/28 19:52:11;;;;;;;6.95;2.85;;;;;;;11.44;73.87;93053.44;5010741;28;20103;-71
2021/11/28 19:54:37;;;;;;;5.13;2.90;;;;;;;11.46;73.40;93053.22;5011080;28;20662;-71
2021/11/28 19:57:03;;;;;;;3.90;2.90;;;;;;;11.51;73.00;93048.94;4992810;28;20026;-72
2021/11/28 19:59:28;;;;;;;5.03;2.78;;;;;;;11.62;72.65;93044.78;4993368;28;20491;-72
2021/11/28 20:01:54;;;;;;;3.90;3.10;;;;;;;11.48;73.17;93038.22;4992962;28;20018;-72
2021/11/28 20:04:19;;;;;;;4.10;2.80;;;;;;;11.48;73.47;93038.22;4993422;28;20102;-71
2021/11/28 20:06:46;;;;;;;4.45;2.60;;;;;;;11.50;73.30;93028.41;4992697;28;20057;-72
2021/11/28 20:09:12;;;;;;;3.38;2.90;;;;;;;11.40;74.08;93025.59;4993046;28;20030;-71
2021/11/28 20:11:39;;;;;;;4.70;2.85;;;;;;;11.20;75.27;93022.53;5010629;28;20452;-72
2021/11/28 20:14:07;;;;;;;4.97;2.53;;;;;;;11.19;75.27;93029.50;4998260;28;20045;-72
2021/11/28 20:16:34;;;;;;;2.97;2.33;;;;;;;11.35;74.96;93022.88;4992999;28;20049;-72
2021/11/28 20:18:59;;;;;;;5.32;4.65;;;;;;;11.72;72.69;93018.34;4992489;28;20148;-72
2021/11/28 20:21:25;;;;;;;1.63;1.35;;;;;;;12.20;70.59;92999.91;4992738;28;20501;-72
2021/11/28 20:23:52;;;;;;;2.05;1.52;;;;;;;12.25;70.22;92982.63;4992446;28;20072;-72
2021/11/28 20:26:18;;;;;;;1.92;1.38;;;;;;;12.23;70.38;92968.31;5010008;28;20415;-71
2021/11/28 20:28:46;;;;;;;1.45;1.30;;;;;;;12.22;70.43;92956.34;4974645;28;20037;-70
2021/11/28 20:31:12;;;;;;;1.75;1.30;;;;;;;12.41;69.32;92949.97;4992194;28;20410;-71
2021/11/28 20:33:37;;;;;;;1.50;1.27;;;;;;;12.45;69.58;92956.28;4992782;28;20479;-70
2021/11/28 20:36:03;;;;;;;1.73;1.42;;;;;;;12.24;70.55;92956.88;5009320;28;20033;-69
2021/11/28 20:38:30;;;;;;;2.00;1.30;;;;;;;12.21;70.90;92949.56;5010775;28;20029;-72
2021/11/28 20:40:56;;;;;;;1.20;1.10;;;;;;;12.31;70.33;92944.56;4975631;28;20037;-71
2021/11/28 20:43:21;;;;;;;3.63;1.23;;;;;;;12.36;69.92;92942.84;4976361;28;20018;-71
2021/11/28 20:45:47;;;;;;;2.58;1.13;;;;;;;12.35;70.30;92935.31;4992008;28;20099;-73
2021/11/28 20:48:13;;;;;;;1.02;0.93;;;;;;;12.53;69.30;92948.91;5009991;28;20057;-72
2021/11/28 20:50:38;;;;;;;2.92;1.48;;;;;;;12.48;69.56;92950.63;5010023;28;20034;-72
2021/11/28 20:53:04;;;;;;;1.67;1.38;;;;;;;12.49;69.70;92947.00;4991857;28;20032;-72
2021/11/28 20:55:30;;;;;;;1.40;1.10;;;;;;;12.54;69.05;92937.50;4992495;28;20037;-69
2021/11/28 20:57:56;;;;;;;2.13;1.17;;;;;;;12.51;68.82;92930.19;4991683;28;20026;-68
2021/11/28 21:00:24;;;;;;;1.58;1.30;;;;;;;12.49;69.66;92929.59;4992530;28;20018;-71
2021/11/28 21:02:50;;;;;;;1.95;1.38;;;;;;;12.78;68.11;92932.97;4991892;28;20117;-71
2021/11/28 21:05:16;;;;;;;1.80;1.00;;;;;;;12.51;69.49;92944.97;5009462;28;20033;-72
2021/11/28 21:07:42;;;;;;;2.30;1.23;;;;;;;12.52;69.75;92951.75;5009297;28;20038;-71
2021/11/28 21:10:09;;;;;;;1.60;1.27;;;;;;;12.58;69.49;92958.59;5009253;28;20045;-71
2021/11/28 21:12:35;;;;;;;1.42;1.33;;;;;;;12.71;69.36;92963.50;4992489;28;20113;-71
2021/11/28 21:15:01;;;;;;;1.73;1.40;;;;;;;12.53;71.35;92953.28;5008617;28;20113;-72
2021/11/28 21:17:30;;;;;;;2.47;1.60;;;;;;;12.34;73.38;92938.91;5009673;28;20049;-71
2021/11/28 21:19:57;;;;;;;2.60;1.20;;;;;;;12.13;75.42;92935.97;4992044;28;20034;-72
2021/11/28 21:22:23;;;;;;;1.80;1.40;;;;;;;12.05;76.44;92927.72;4991895;28;20408;-71
2021/11/28 21:24:49;;;;;;;1.67;1.58;;;;;;;11.61;81.38;92921.34;5008890;28;20179;-72
2021/11/28 21:27:14;;;;;;;2.25;1.77;;;;;;;11.30;83.68;92924.31;4975195;28;20532;-72
2021/11/28 21:29:40;;;;;;;3.03;2.63;;;;;;;11.29;83.09;92910.56;4991842;28;20079;-72
2021/11/28 21:32:07;;;;;;;4.13;2.80;;;;;;;11.53;79.97;92922.47;4990863;28;20109;-72
2021/11/28 21:34:35;;;;;;;3.95;2.22;;;;;;;11.06;84.71;92932.06;5009145;28;20415;-72
2021/11/28 21:37:01;;;;;;;2.38;2.03;;;;;;;11.01;86.41;92924.16;5008568;28;20026;-72
2021/11/28 21:39:27;;;;;;;3.97;2.90;;;;;;;10.98;87.04;92916.81;4991386;28;20059;-72
2021/11/28 21:41:53;;;;;;;3.13;2.83;;;;;;;10.83;88.11;92908.69;4991307;28;20037;-72
2021/11/28 21:44:18;;;;;;;5.13;4.05;;;;;;;10.77;88.52;92932.09;4990980;28;20034;-72
2021/11/28 21:46:44;;;;;;;5.03;3.88;;;;;;;10.75;88.38;92924.56;4991545;28;20168;-72
2021/11/28 21:49:09;;;;;;;4.38;3.85;;;;;;;10.69;89.45;92922.84;5008296;28;20110;-73
2021/11/28 21:51:36;;;;;;;5.20;4.45;;;;;;;10.57;90.03;92922.81;4991773;28;20030;-72
2021/11/28 21:54:03;;;;;;;5.55;4.85;;;;;;;10.56;90.43;92918.66;5007832;28;20053;-72
2021/11/28 21:56:29;;;;;;;5.70;5.05;;;;;;;10.50;90.99;92910.97;4991498;28;20026;-72
2021/11/28 21:58:55;;;;;;;4.43;4.03;;;;;;;10.47;91.31;92908.84;4990713;28;20033;-72
2021/11/28 22:01:20;;;;;;;4.50;3.78;;;;;;;10.56;89.92;92920.47;4991075;28;20026;-72
2021/11/28 22:03:46;;;;;;;5.90;4.20;;;;;;;10.34;91.08;92899.47;4991093;28;20026;-72
2021/11/28 22:06:11;;;;;;;4.13;3.58;;;;;;;10.32;91.17;92911.03;5007705;28;20026;-71
2021/11/28 22:08:37;;;;;;;4.68;3.95;;;;;;;10.30;91.26;92905.31;5008952;28;20038;-72
2021/11/28 22:11:02;;;;;;;6.97;4.38;;;;;;;10.07;92.39;92885.28;4990113;28;20072;-72
2021/11/28 22:13:29;;;;;;;5.15;4.50;;;;;;;10.00;93.22;92884.56;4991340;28;20541;-72
2021/11/28 22:15:54;;;;;;;6.53;4.22;;;;;;;9.97;92.71;92888.38;4973872;28;20466;-72
2021/11/28 22:18:20;;;;;;;5.13;4.63;;;;;;;10.01;93.35;92897.28;4990716;28;20022;-72
2021/11/28 22:20:46;;;;;;;6.32;5.43;;;;;;;9.96;93.37;92867.91;4974525;28;20145;-72
2021/11/28 22:23:12;;;;;;;7.05;5.28;;;;;;;9.84;93.91;92880.78;4990365;28;20395;-72
2021/11/28 22:25:37;;;;;;;6.60;5.72;;;;;;;9.79;94.71;92878.03;4990540;28;20041;-73
2021/11/28 22:28:03;;;;;;;9.13;6.80;;;;;;;9.80;94.87;92878.84;4990041;28;20499;-73
2021/11/28 22:30:31;;;;;;;8.73;6.40;;;;;;;9.77;94.67;92868.94;5008704;28;20506;-72
2021/11/28 22:32:57;;;;;;;7.35;6.68;;;;;;;9.92;94.73;92885.66;4973686;28;20501;-72
2021/11/28 22:35:24;;;;;;;8.52;7.63;;;;;;;9.91;94.13;92875.53;4990225;28;20022;-72
2021/11/28 22:37:50;;;;;;;10.45;7.55;;;;;;;9.86;94.32;92865.03;4990445;28;20026;-72
2021/11/28 22:40:19;;;;;;;11.18;9.07;;;;;;;9.80;95.34;92865.91;4973680;28;20026;-73
2021/11/28 22:42:45;;;;;;;10.10;8.75;;;;;;;9.84;95.08;92861.91;4990809;28;20108;-73
2021/11/28 22:45:12;;;;;;;11.13;9.95;;;;;;;9.87;94.87;92870.00;4989373;28;20521;-72
2021/11/28 22:47:39;;;;;;;10.82;9.25;;;;;;;9.84;95.02;92878.22;4990557;28;20033;-72
2021/11/28 22:50:06;;;;;;;12.73;9.73;;;;;;;9.92;93.87;92872.72;5007201;28;20100;-72
2021/11/28 22:52:32;;;;;;;13.38;10.00;;;;;;;9.85;94.26;92864.28;5007492;28;20093;-72
2021/11/28 22:54:57;;;;;;;10.75;9.15;;;;;;;9.85;94.81;92840.22;5007064;28;20061;-72
2021/11/28 22:57:23;;;;;;;11.75;9.13;;;;;;;9.77;95.86;92854.22;4989973;28;20032;-72
2021/11/28 22:59:48;;;;;;;10.50;8.20;;;;;;;9.64;97.15;92862.13;5007818;28;20130;-72
